Coronel Boerr, Argentina
Current Conditions -  °F | °C
As of 5:00 AM on Thursday 27 Nov 2014 (Local Time) from SAEZ Reporting Station
Clear Clear  
Wind Chill: 57°   Ceiling: Unl
Heat Index: 57°   Visibility: 6mi
Dew Point: 54°   Wind: 1mph
Humidity: 88%   Direction: 40°NE
Pressure: 29.97"   Gusts: NA
Location:  35.99°S, 59.09°W
Report Text: SAEZ 270800Z 04001KT CAVOK 14/12 Q1015
Loading
Personal Weather Stations






























Interactive Weather Map New forecast layout! Learn more

10-Day Weather Forecast

Advertisements
Track Severe Weather on mobile